Tall Kayf, Iraq
Current Conditions -  °F | °C
As of 12:00 PM on Saturday 25 Oct 2014 (Local Time) from ORER Reporting Station
Clear Clear  
Wind Chill: 73°   Ceiling: Unl
Heat Index: 73°   Visibility: 6mi
Dew Point: 50°   Wind: 2mph
Humidity: 44%   Direction: NA
Pressure: 29.94"   Gusts: NA
Location:  36.48°N, 43.13°E
Report Text: ORER 250900Z VRB02KT 9000 NSC 23/10 Q1014
Loading
Personal Weather Stations






























Interactive Weather Map
Tropical Storm Tracking
New forecast layout! Learn more

10-Day Weather Forecast

Advertisements
Track Severe Weather on mobile